TAF Text Data
IDs:
Format:
Raw Decoded Include METAR

Data at: 0450 UTC 20 Sep 2020

KCHO 192322Z 2000/2024 06003KT P6SM SCT250
  FM202000 05007KT P6SM SKC